createdAt,value
2022-12-23T00:00:04.860Z,8.91
2022-12-23T00:00:14.831Z,8.91
2022-12-23T00:00:24.859Z,8.91
2022-12-23T00:00:35.201Z,8.91
2022-12-23T00:00:45.021Z,8.91
2022-12-23T00:00:54.822Z,8.91
2022-12-23T00:01:06.265Z,8.91
2022-12-23T00:01:14.830Z,8.91
2022-12-23T00:01:26.382Z,8.92
2022-12-23T00:01:36.412Z,8.91
2022-12-23T00:01:46.401Z,8.91
2022-12-23T00:01:56.381Z,8.91
2022-12-23T00:02:05.859Z,8.91
2022-12-23T00:02:16.405Z,8.92
2022-12-23T00:02:25.360Z,8.91
2022-12-23T00:02:36.011Z,8.92
2022-12-23T00:02:44.966Z,8.91
2022-12-23T00:02:55.141Z,8.92
2022-12-23T00:03:06.413Z,8.92
2022-12-23T00:03:14.959Z,8.92
2022-12-23T00:03:25.860Z,8.93
2022-12-23T00:03:36.358Z,8.93
2022-12-23T00:03:44.970Z,8.93
2022-12-23T00:03:54.871Z,8.94
2022-12-23T00:04:04.897Z,8.95
2022-12-23T00:04:14.883Z,8.94
2022-12-23T00:04:24.907Z,8.94
2022-12-23T00:04:34.803Z,8.95
2022-12-23T00:04:44.861Z,8.95
2022-12-23T00:04:54.813Z,8.95
2022-12-23T00:05:04.804Z,8.95
2022-12-23T00:05:14.794Z,8.95
2022-12-23T00:05:24.798Z,8.96
2022-12-23T00:05:37.944Z,8.96
2022-12-23T00:05:44.827Z,8.92
2022-12-23T00:05:54.792Z,8.94
2022-12-23T00:06:06.264Z,8.95
2022-12-23T00:06:14.797Z,8.95
2022-12-23T00:06:26.255Z,8.96
2022-12-23T00:06:36.260Z,8.96
2022-12-23T00:06:46.253Z,8.97
2022-12-23T00:06:54.799Z,8.96
2022-12-23T00:07:04.933Z,8.99
2022-12-23T00:07:14.862Z,8.98
2022-12-23T00:07:24.870Z,8.99
2022-12-23T00:07:34.934Z,8.99
2022-12-23T00:07:44.965Z,8.99
2022-12-23T00:07:54.892Z,9.00
2022-12-23T00:08:04.786Z,9.00
2022-12-23T00:08:16.221Z,9.00
2022-12-23T00:08:25.014Z,8.99
2022-12-23T00:08:34.942Z,9.01
2022-12-23T00:08:44.775Z,9.01
2022-12-23T00:08:55.025Z,9.01
2022-12-23T00:09:06.259Z,9.01
2022-12-23T00:09:14.944Z,9.01
2022-12-23T00:09:25.016Z,9.02
2022-12-23T00:09:34.916Z,9.02
2022-12-23T00:09:44.991Z,9.02
2022-12-23T00:09:54.765Z,9.02
2022-12-23T00:10:04.840Z,9.03
2022-12-23T00:10:14.990Z,9.03
2022-12-23T00:10:24.743Z,9.02
2022-12-23T00:10:35.033Z,9.04
2022-12-23T00:10:44.786Z,9.03
2022-12-23T00:10:56.197Z,9.04
2022-12-23T00:11:04.770Z,9.03
2022-12-23T00:11:15.096Z,9.04
2022-12-23T00:11:25.034Z,9.04
2022-12-23T00:11:36.213Z,9.05
2022-12-23T00:11:44.744Z,9.04
2022-12-23T00:11:54.853Z,9.05
2022-12-23T00:12:04.731Z,9.04
2022-12-23T00:12:14.759Z,9.04
2022-12-23T00:12:24.759Z,9.03
2022-12-23T00:12:35.575Z,9.03
2022-12-23T00:12:44.754Z,9.03
2022-12-23T00:12:54.804Z,9.04
2022-12-23T00:13:04.769Z,9.03
2022-12-23T00:13:14.767Z,9.03
2022-12-23T00:13:24.735Z,9.03
2022-12-23T00:13:34.739Z,9.04
2022-12-23T00:13:44.760Z,9.04
2022-12-23T00:13:54.740Z,9.03
2022-12-23T00:14:04.733Z,9.02
2022-12-23T00:14:21.161Z,9.03
2022-12-23T00:14:26.795Z,8.97
2022-12-23T00:14:35.310Z,9.00
2022-12-23T00:14:46.754Z,9.01
2022-12-23T00:14:55.318Z,8.99
2022-12-23T00:15:05.363Z,9.01
2022-12-23T00:15:15.351Z,9.00
2022-12-23T00:15:25.346Z,9.01
2022-12-23T00:15:35.334Z,9.01
2022-12-23T00:15:45.340Z,9.01
2022-12-23T00:15:55.341Z,9.00
2022-12-23T00:16:05.411Z,9.02
2022-12-23T00:16:16.811Z,9.01
2022-12-23T00:16:25.406Z,9.01
2022-12-23T00:16:35.367Z,9.02
2022-12-23T00:16:45.313Z,9.02
2022-12-23T00:16:55.394Z,9.02
2022-12-23T00:17:12.945Z,9.02
2022-12-23T00:17:22.453Z,8.97
2022-12-23T00:17:25.321Z,8.97
2022-12-23T00:17:35.320Z,9.00
2022-12-23T00:17:45.364Z,9.00
2022-12-23T00:17:55.386Z,9.01
2022-12-23T00:18:05.393Z,9.01
2022-12-23T00:18:15.293Z,9.00
2022-12-23T00:18:25.353Z,9.01
2022-12-23T00:18:35.383Z,9.01
2022-12-23T00:18:45.424Z,9.00
2022-12-23T00:18:55.492Z,9.00
2022-12-23T00:19:05.283Z,9.00
2022-12-23T00:19:15.312Z,9.00
2022-12-23T00:19:26.724Z,8.99
2022-12-23T00:19:36.740Z,8.99
2022-12-23T00:19:45.305Z,9.00
2022-12-23T00:19:55.480Z,9.00
2022-12-23T00:20:06.744Z,9.00
2022-12-23T00:20:15.312Z,8.99
2022-12-23T00:20:25.470Z,9.01
2022-12-23T00:20:35.266Z,9.00
2022-12-23T00:20:46.730Z,9.00
2022-12-23T00:20:56.715Z,9.00
2022-12-23T00:21:08.983Z,9.00
2022-12-23T00:21:15.766Z,8.97
2022-12-23T00:21:26.226Z,8.99
2022-12-23T00:21:35.343Z,9.00
2022-12-23T00:21:45.284Z,9.00
2022-12-23T00:21:55.275Z,9.01
2022-12-23T00:22:05.306Z,9.00
2022-12-23T00:22:15.295Z,9.00
2022-12-23T00:22:26.726Z,9.00
2022-12-23T00:22:36.235Z,9.00
2022-12-23T00:22:45.274Z,9.00
2022-12-23T00:22:55.351Z,9.01
2022-12-23T00:23:05.293Z,9.01
2022-12-23T00:23:15.281Z,9.01
2022-12-23T00:23:25.291Z,9.01
2022-12-23T00:23:35.236Z,9.00
2022-12-23T00:23:45.275Z,9.00
2022-12-23T00:23:55.274Z,9.00
2022-12-23T00:24:05.274Z,9.00
2022-12-23T00:24:16.720Z,9.00
2022-12-23T00:24:25.253Z,9.00
2022-12-23T00:24:35.274Z,9.01
2022-12-23T00:24:45.259Z,9.00
2022-12-23T00:24:55.247Z,9.00
2022-12-23T00:25:06.705Z,9.00
2022-12-23T00:25:15.239Z,9.00
2022-12-23T00:25:26.152Z,9.00
2022-12-23T00:25:35.247Z,8.99
2022-12-23T00:25:45.265Z,9.00
2022-12-23T00:25:55.245Z,9.00
2022-12-23T00:26:06.708Z,9.00
2022-12-23T00:26:16.232Z,8.99
2022-12-23T00:26:25.249Z,9.00
2022-12-23T00:26:35.237Z,9.00
2022-12-23T00:26:45.348Z,8.99
2022-12-23T00:26:55.524Z,8.99
2022-12-23T00:27:05.226Z,8.99
2022-12-23T00:27:15.241Z,8.99
2022-12-23T00:27:26.687Z,8.99
2022-12-23T00:27:37.823Z,8.98
2022-12-23T00:27:46.179Z,8.96
2022-12-23T00:27:55.662Z,8.97
2022-12-23T00:28:06.675Z,8.98
2022-12-23T00:28:15.211Z,8.98
2022-12-23T00:28:25.229Z,8.98
2022-12-23T00:28:36.684Z,8.99
2022-12-23T00:28:45.213Z,8.97
2022-12-23T00:28:56.649Z,8.99
2022-12-23T00:29:06.663Z,8.97
2022-12-23T00:29:16.655Z,8.98
2022-12-23T00:29:26.657Z,8.98
2022-12-23T00:29:35.227Z,8.98
2022-12-23T00:29:46.651Z,8.99
2022-12-23T00:29:55.258Z,8.98
2022-12-23T00:30:05.398Z,8.98
2022-12-23T00:30:15.195Z,8.98
2022-12-23T00:30:25.684Z,8.97
2022-12-23T00:30:36.163Z,8.98
2022-12-23T00:30:45.206Z,8.97
2022-12-23T00:30:55.259Z,8.98
2022-12-23T00:31:05.197Z,8.97
2022-12-23T00:31:15.250Z,8.97
2022-12-23T00:31:25.310Z,8.97
2022-12-23T00:31:35.275Z,8.97
2022-12-23T00:31:45.271Z,8.97
2022-12-23T00:31:56.081Z,8.97
2022-12-23T00:32:05.253Z,8.97
2022-12-23T00:32:15.591Z,8.97
2022-12-23T00:32:25.167Z,8.96
2022-12-23T00:32:35.967Z,8.96
2022-12-23T00:32:45.197Z,8.96
2022-12-23T00:32:55.233Z,8.96
2022-12-23T00:33:06.623Z,8.96
2022-12-23T00:33:15.283Z,8.96
2022-12-23T00:33:25.205Z,8.97
2022-12-23T00:33:35.201Z,8.96
2022-12-23T00:33:45.183Z,8.96
2022-12-23T00:33:56.114Z,8.96
2022-12-23T00:34:06.153Z,8.96
2022-12-23T00:34:16.646Z,8.97
2022-12-23T00:34:25.178Z,8.95
2022-12-23T00:34:35.188Z,8.96
2022-12-23T00:34:46.618Z,8.96
2022-12-23T00:34:56.629Z,8.95
2022-12-23T00:35:05.157Z,8.95
2022-12-23T00:35:16.624Z,8.96
2022-12-23T00:35:26.611Z,8.95
2022-12-23T00:35:35.161Z,8.95
2022-12-23T00:35:45.232Z,8.96
2022-12-23T00:35:55.210Z,8.94
2022-12-23T00:36:05.215Z,8.95
2022-12-23T00:36:15.297Z,8.94
2022-12-23T00:36:26.692Z,8.94
2022-12-23T00:36:35.203Z,8.94
2022-12-23T00:36:45.149Z,8.96
2022-12-23T00:36:55.183Z,8.97
2022-12-23T00:37:05.198Z,8.96
2022-12-23T00:37:15.160Z,8.97
2022-12-23T00:37:25.160Z,8.97
2022-12-23T00:37:35.159Z,8.97
2022-12-23T00:37:45.150Z,8.97
2022-12-23T00:37:55.188Z,8.97
2022-12-23T00:38:05.950Z,8.98
2022-12-23T00:38:15.180Z,8.97
2022-12-23T00:38:25.149Z,8.97
2022-12-23T00:38:35.151Z,8.97
2022-12-23T00:38:45.151Z,8.98
2022-12-23T00:38:55.156Z,8.97
2022-12-23T00:39:05.224Z,8.97
2022-12-23T00:39:15.146Z,8.98
2022-12-23T00:39:25.138Z,8.98
2022-12-23T00:39:35.129Z,8.98
2022-12-23T00:39:45.146Z,8.98
2022-12-23T00:39:55.785Z,8.98
2022-12-23T00:40:07.126Z,8.97
2022-12-23T00:40:16.591Z,8.96
2022-12-23T00:40:25.150Z,8.96
2022-12-23T00:40:35.129Z,8.98
2022-12-23T00:40:46.579Z,8.97
2022-12-23T00:40:55.140Z,8.97
2022-12-23T00:41:05.129Z,8.98
2022-12-23T00:41:15.483Z,8.98
2022-12-23T00:41:25.099Z,8.97
2022-12-23T00:41:35.135Z,8.97
2022-12-23T00:41:46.576Z,8.96
2022-12-23T00:41:55.129Z,8.96
2022-12-23T00:42:05.123Z,8.98
2022-12-23T00:42:15.128Z,8.97
2022-12-23T00:42:25.113Z,8.97
2022-12-23T00:42:35.131Z,8.97
2022-12-23T00:42:45.120Z,8.97
2022-12-23T00:42:55.121Z,8.97
2022-12-23T00:43:05.137Z,8.96
2022-12-23T00:43:15.227Z,8.97
2022-12-23T00:43:25.091Z,8.97
2022-12-23T00:43:36.602Z,8.96
2022-12-23T00:43:45.109Z,8.96
2022-12-23T00:43:56.551Z,8.97
2022-12-23T00:44:05.705Z,8.96
2022-12-23T00:44:15.108Z,8.97
2022-12-23T00:44:25.073Z,8.98
2022-12-23T00:44:35.190Z,8.97
2022-12-23T00:44:45.500Z,8.97
2022-12-23T00:44:56.560Z,8.97
2022-12-23T00:45:05.118Z,8.96
2022-12-23T00:45:15.106Z,8.96
2022-12-23T00:45:25.653Z,8.97
2022-12-23T00:45:35.743Z,8.96
2022-12-23T00:45:46.589Z,8.96
2022-12-23T00:45:55.187Z,8.96
2022-12-23T00:46:05.433Z,8.97
2022-12-23T00:46:15.839Z,8.97
2022-12-23T00:46:25.998Z,8.97
2022-12-23T00:46:35.153Z,8.96
2022-12-23T00:46:45.112Z,8.97
2022-12-23T00:46:55.772Z,8.97
2022-12-23T00:47:05.091Z,8.96
2022-12-23T00:47:15.085Z,8.96
2022-12-23T00:47:25.273Z,8.96
2022-12-23T00:47:35.608Z,8.96
2022-12-23T00:47:45.542Z,8.95
2022-12-23T00:47:55.779Z,8.96
2022-12-23T00:48:05.838Z,8.95
2022-12-23T00:48:15.072Z,8.96
2022-12-23T00:48:25.894Z,8.96
2022-12-23T00:48:35.178Z,8.95
2022-12-23T00:48:45.081Z,8.96
2022-12-23T00:48:55.104Z,8.96
2022-12-23T00:49:05.924Z,8.95
2022-12-23T00:49:15.945Z,8.94
2022-12-23T00:49:25.085Z,8.93
2022-12-23T00:49:35.041Z,8.93
2022-12-23T00:49:45.086Z,8.94
2022-12-23T00:49:55.290Z,8.93
2022-12-23T00:50:05.048Z,8.94
2022-12-23T00:50:16.517Z,8.93
2022-12-23T00:50:25.058Z,8.92
2022-12-23T00:50:35.075Z,8.93
2022-12-23T00:50:46.018Z,8.91
2022-12-23T00:50:56.513Z,8.90
2022-12-23T00:51:06.506Z,8.91
2022-12-23T00:51:15.074Z,8.90
2022-12-23T00:51:25.083Z,8.91
2022-12-23T00:51:35.067Z,8.90
2022-12-23T00:51:45.048Z,8.91
2022-12-23T00:51:55.069Z,8.90
2022-12-23T00:52:05.071Z,8.90
2022-12-23T00:52:15.109Z,8.90
2022-12-23T00:52:25.046Z,8.91
2022-12-23T00:52:35.043Z,8.91
2022-12-23T00:52:46.507Z,8.91
2022-12-23T00:52:55.081Z,8.90
2022-12-23T00:53:06.483Z,8.91
2022-12-23T00:53:16.484Z,8.91
2022-12-23T00:53:25.038Z,8.90
2022-12-23T00:53:35.025Z,8.91
2022-12-23T00:53:45.052Z,8.90
2022-12-23T00:53:55.071Z,8.90
2022-12-23T00:54:05.041Z,8.89
2022-12-23T00:54:15.055Z,8.89
2022-12-23T00:54:25.042Z,8.89
2022-12-23T00:54:35.048Z,8.88
2022-12-23T00:54:45.052Z,8.90
2022-12-23T00:54:56.474Z,8.89
2022-12-23T00:55:06.541Z,8.88
2022-12-23T00:55:15.017Z,8.88
2022-12-23T00:55:25.053Z,8.89
2022-12-23T00:55:35.013Z,8.89
2022-12-23T00:55:45.033Z,8.88
2022-12-23T00:55:55.777Z,8.88
2022-12-23T00:56:05.025Z,8.88
2022-12-23T00:56:15.043Z,8.89
2022-12-23T00:56:26.463Z,8.88
2022-12-23T00:56:35.015Z,8.87
2022-12-23T00:56:45.028Z,8.88
2022-12-23T00:56:55.015Z,8.87
2022-12-23T00:57:05.026Z,8.88
2022-12-23T00:57:14.982Z,8.88
2022-12-23T00:57:25.029Z,8.88
2022-12-23T00:57:35.008Z,8.88
2022-12-23T00:57:44.997Z,8.88
2022-12-23T00:57:55.022Z,8.87
2022-12-23T00:58:06.463Z,8.87
2022-12-23T00:58:16.434Z,8.87
2022-12-23T00:58:25.054Z,8.87
2022-12-23T00:58:36.463Z,8.88
2022-12-23T00:58:45.004Z,8.87
2022-12-23T00:58:55.053Z,8.88
2022-12-23T00:59:04.994Z,8.87
2022-12-23T00:59:14.999Z,8.86
2022-12-23T00:59:26.434Z,8.86
2022-12-23T00:59:34.992Z,8.86
2022-12-23T00:59:45.048Z,8.85
2022-12-23T00:59:54.987Z,8.86
2022-12-23T01:00:05.016Z,8.86
2022-12-23T01:00:14.964Z,8.85
2022-12-23T01:00:26.424Z,8.85
2022-12-23T01:00:35.941Z,8.84
2022-12-23T01:00:45.034Z,8.85
2022-12-23T01:00:55.011Z,8.86
2022-12-23T01:01:05.859Z,8.85
2022-12-23T01:01:16.501Z,8.84
2022-12-23T01:01:26.577Z,8.85
2022-12-23T01:01:35.022Z,8.85
2022-12-23T01:01:45.133Z,8.86
2022-12-23T01:01:56.754Z,8.84
2022-12-23T01:02:06.613Z,8.84
2022-12-23T01:02:16.019Z,8.84
2022-12-23T01:02:25.163Z,8.85
2022-12-23T01:02:36.597Z,8.85
2022-12-23T01:02:45.058Z,8.84
2022-12-23T01:02:55.685Z,8.84
2022-12-23T01:03:06.561Z,8.83
2022-12-23T01:03:15.093Z,8.82
2022-12-23T01:03:25.892Z,8.83
2022-12-23T01:03:34.993Z,8.81
2022-12-23T01:03:44.971Z,8.82
2022-12-23T01:03:54.956Z,8.81
2022-12-23T01:04:04.969Z,8.81
2022-12-23T01:04:16.405Z,8.81
2022-12-23T01:04:24.988Z,8.81
2022-12-23T01:04:34.945Z,8.82
2022-12-23T01:04:44.992Z,8.81
2022-12-23T01:04:54.953Z,8.82
2022-12-23T01:05:05.015Z,8.82
2022-12-23T01:05:14.991Z,8.82
2022-12-23T01:05:24.933Z,8.81
2022-12-23T01:05:34.956Z,8.81
2022-12-23T01:05:46.407Z,8.81
2022-12-23T01:05:55.615Z,8.81
2022-12-23T01:06:04.944Z,8.81
2022-12-23T01:06:14.953Z,8.82
2022-12-23T01:06:25.023Z,8.81
2022-12-23T01:06:35.716Z,8.82
2022-12-23T01:06:45.167Z,8.81
2022-12-23T01:06:54.910Z,8.82
2022-12-23T01:07:05.741Z,8.82
2022-12-23T01:07:14.925Z,8.81
2022-12-23T01:07:24.974Z,8.83
2022-12-23T01:07:35.729Z,8.82
2022-12-23T01:07:45.785Z,8.82
2022-12-23T01:07:54.936Z,8.82
2022-12-23T01:08:05.741Z,8.82
2022-12-23T01:08:16.377Z,8.82
2022-12-23T01:08:24.927Z,8.81
2022-12-23T01:08:35.836Z,8.82
2022-12-23T01:08:44.928Z,8.81
2022-12-23T01:08:55.835Z,8.82
2022-12-23T01:09:05.797Z,8.82
2022-12-23T01:09:14.918Z,8.81
2022-12-23T01:09:24.928Z,8.83
2022-12-23T01:09:34.975Z,8.83
2022-12-23T01:09:44.898Z,8.82
2022-12-23T01:09:54.928Z,8.83
2022-12-23T01:10:04.927Z,8.83
2022-12-23T01:10:14.914Z,8.83
2022-12-23T01:10:26.349Z,8.83
2022-12-23T01:10:34.895Z,8.83
2022-12-23T01:10:44.907Z,8.84
2022-12-23T01:10:56.367Z,8.84
2022-12-23T01:11:04.913Z,8.83
2022-12-23T01:11:16.357Z,8.84
2022-12-23T01:11:25.818Z,8.83
2022-12-23T01:11:34.903Z,8.83
2022-12-23T01:11:45.122Z,8.83
2022-12-23T01:11:56.367Z,8.83
2022-12-23T01:12:04.907Z,8.81
2022-12-23T01:12:16.341Z,8.83
2022-12-23T01:12:25.024Z,8.82
2022-12-23T01:12:35.845Z,8.83
2022-12-23T01:12:46.357Z,8.82
2022-12-23T01:12:54.905Z,8.82
2022-12-23T01:13:06.337Z,8.83
2022-12-23T01:13:14.990Z,8.81
2022-12-23T01:13:25.008Z,8.82
2022-12-23T01:13:35.078Z,8.82
2022-12-23T01:13:45.082Z,8.82
2022-12-23T01:13:55.011Z,8.82
2022-12-23T01:14:05.078Z,8.82
2022-12-23T01:14:15.207Z,8.81
2022-12-23T01:14:25.153Z,8.82
2022-12-23T01:14:35.100Z,8.81
2022-12-23T01:14:45.118Z,8.81
2022-12-23T01:14:55.156Z,8.81
2022-12-23T01:15:04.900Z,8.81
2022-12-23T01:15:14.882Z,8.81
2022-12-23T01:15:25.164Z,8.81
2022-12-23T01:15:35.158Z,8.80
2022-12-23T01:15:45.113Z,8.81
2022-12-23T01:15:55.169Z,8.81
2022-12-23T01:16:05.258Z,8.81
2022-12-23T01:16:17.771Z,8.80
2022-12-23T01:16:25.179Z,8.77
2022-12-23T01:16:35.080Z,8.79
2022-12-23T01:16:46.380Z,8.80
2022-12-23T01:16:55.099Z,8.80
2022-12-23T01:17:04.915Z,8.80
2022-12-23T01:17:16.458Z,8.80
2022-12-23T01:17:25.409Z,8.79
2022-12-23T01:17:35.837Z,8.80
2022-12-23T01:17:44.869Z,8.80
2022-12-23T01:17:54.959Z,8.80
2022-12-23T01:18:04.880Z,8.80
2022-12-23T01:18:14.876Z,8.80
2022-12-23T01:18:24.861Z,8.80
2022-12-23T01:18:34.869Z,8.79
2022-12-23T01:18:44.909Z,8.79
2022-12-23T01:18:55.281Z,8.79
2022-12-23T01:19:04.829Z,8.79
2022-12-23T01:19:14.853Z,8.79
2022-12-23T01:19:24.848Z,8.79
2022-12-23T01:19:36.289Z,8.79
2022-12-23T01:19:45.793Z,8.78
2022-12-23T01:19:56.293Z,8.78
2022-12-23T01:20:05.833Z,8.78
2022-12-23T01:20:14.841Z,8.78
2022-12-23T01:20:24.862Z,8.78
2022-12-23T01:20:34.833Z,8.79
2022-12-23T01:20:46.309Z,8.78
2022-12-23T01:20:54.872Z,8.78
2022-12-23T01:21:04.849Z,8.79
2022-12-23T01:21:14.856Z,8.78
2022-12-23T01:21:24.850Z,8.78
2022-12-23T01:21:36.279Z,8.78
2022-12-23T01:21:44.969Z,8.78
2022-12-23T01:21:54.829Z,8.78
2022-12-23T01:22:04.859Z,8.78
2022-12-23T01:22:14.839Z,8.77
2022-12-23T01:22:24.859Z,8.78
2022-12-23T01:22:34.801Z,8.77
2022-12-23T01:22:46.295Z,8.77
2022-12-23T01:22:54.829Z,8.77
2022-12-23T01:23:04.855Z,8.78
2022-12-23T01:23:14.836Z,8.78
2022-12-23T01:23:24.830Z,8.78
2022-12-23T01:23:34.823Z,8.78
2022-12-23T01:23:45.827Z,8.78
2022-12-23T01:23:54.828Z,8.78
2022-12-23T01:24:04.840Z,8.78
2022-12-23T01:24:14.800Z,8.79
2022-12-23T01:24:24.841Z,8.79
2022-12-23T01:24:36.274Z,8.79
2022-12-23T01:24:46.323Z,8.78
2022-12-23T01:24:56.284Z,8.79
2022-12-23T01:25:04.838Z,8.79
2022-12-23T01:25:14.808Z,8.80
2022-12-23T01:25:24.832Z,8.79
2022-12-23T01:25:34.860Z,8.79
2022-12-23T01:25:46.250Z,8.78
2022-12-23T01:25:56.259Z,8.78
2022-12-23T01:26:04.794Z,8.77
2022-12-23T01:26:16.250Z,8.78
2022-12-23T01:26:24.835Z,8.76
2022-12-23T01:26:34.831Z,8.78
2022-12-23T01:26:46.311Z,8.77
2022-12-23T01:26:55.774Z,8.76
2022-12-23T01:27:04.806Z,8.76
2022-12-23T01:27:16.265Z,8.77
2022-12-23T01:27:24.801Z,8.77
2022-12-23T01:27:34.810Z,8.77
2022-12-23T01:27:46.254Z,8.76
2022-12-23T01:27:56.263Z,8.76
2022-12-23T01:28:04.804Z,8.76
2022-12-23T01:28:14.795Z,8.76
2022-12-23T01:28:25.730Z,8.76
2022-12-23T01:28:34.802Z,8.75
2022-12-23T01:28:44.809Z,8.76
2022-12-23T01:28:54.784Z,8.76
2022-12-23T01:29:04.841Z,8.77
2022-12-23T01:29:14.794Z,8.77
2022-12-23T01:29:26.257Z,8.76
2022-12-23T01:29:34.773Z,8.74
2022-12-23T01:29:45.743Z,8.75
2022-12-23T01:29:56.211Z,8.75
2022-12-23T01:30:04.773Z,8.75
2022-12-23T01:30:16.221Z,8.76
2022-12-23T01:30:26.200Z,8.75
2022-12-23T01:30:34.765Z,8.75
2022-12-23T01:30:44.762Z,8.76
2022-12-23T01:30:54.812Z,8.76
2022-12-23T01:31:06.222Z,8.75
2022-12-23T01:31:14.786Z,8.74
2022-12-23T01:31:24.871Z,8.76
2022-12-23T01:31:34.899Z,8.75
2022-12-23T01:31:44.850Z,8.75
2022-12-23T01:31:54.901Z,8.74
2022-12-23T01:32:04.902Z,8.73
2022-12-23T01:32:14.908Z,8.74
2022-12-23T01:32:24.750Z,8.74
2022-12-23T01:32:34.819Z,8.73
2022-12-23T01:32:44.755Z,8.73
2022-12-23T01:32:54.772Z,8.73
2022-12-23T01:33:04.779Z,8.72
2022-12-23T01:33:14.760Z,8.72
2022-12-23T01:33:24.982Z,8.72
2022-12-23T01:33:34.774Z,8.71
2022-12-23T01:33:44.776Z,8.72
2022-12-23T01:33:54.761Z,8.71
2022-12-23T01:34:04.758Z,8.71
2022-12-23T01:34:14.810Z,8.71
2022-12-23T01:34:24.768Z,8.71
2022-12-23T01:34:37.411Z,8.71
2022-12-23T01:34:44.792Z,8.67
2022-12-23T01:34:54.789Z,8.69
2022-12-23T01:35:04.729Z,8.68
2022-12-23T01:35:14.713Z,8.69
2022-12-23T01:35:24.722Z,8.69
2022-12-23T01:35:34.788Z,8.69
2022-12-23T01:35:46.164Z,8.69
2022-12-23T01:35:54.734Z,8.68
2022-12-23T01:36:04.712Z,8.69
2022-12-23T01:36:14.773Z,8.69
2022-12-23T01:36:26.153Z,8.70
2022-12-23T01:36:34.744Z,8.68
2022-12-23T01:36:46.176Z,8.71
2022-12-23T01:36:54.732Z,8.70
2022-12-23T01:37:04.850Z,8.71
2022-12-23T01:37:16.159Z,8.71
2022-12-23T01:37:26.189Z,8.69
2022-12-23T01:37:34.742Z,8.70
2022-12-23T01:37:44.740Z,8.71
2022-12-23T01:37:54.730Z,8.69
2022-12-23T01:38:04.721Z,8.69
2022-12-23T01:38:16.164Z,8.69
2022-12-23T01:38:24.712Z,8.68
2022-12-23T01:38:34.705Z,8.69
2022-12-23T01:38:44.714Z,8.68
2022-12-23T01:38:56.191Z,8.69
2022-12-23T01:39:04.716Z,8.67
2022-12-23T01:39:14.706Z,8.68
2022-12-23T01:39:25.151Z,8.68
2022-12-23T01:39:34.694Z,8.67
2022-12-23T01:39:44.702Z,8.67
2022-12-23T01:39:54.746Z,8.68
2022-12-23T01:40:06.143Z,8.68
2022-12-23T01:40:14.729Z,8.67
2022-12-23T01:40:25.133Z,8.68
2022-12-23T01:40:34.704Z,8.68
2022-12-23T01:40:46.141Z,8.68
2022-12-23T01:40:54.747Z,8.69
2022-12-23T01:41:04.784Z,8.69
2022-12-23T01:41:16.131Z,8.68
2022-12-23T01:41:24.691Z,8.67
2022-12-23T01:41:34.714Z,8.68
2022-12-23T01:41:46.138Z,8.67
2022-12-23T01:41:54.695Z,8.67
2022-12-23T01:42:04.719Z,8.68
2022-12-23T01:42:14.684Z,8.67
2022-12-23T01:42:24.952Z,8.66
2022-12-23T01:42:34.696Z,8.65
2022-12-23T01:42:44.679Z,8.65
2022-12-23T01:42:54.686Z,8.65
2022-12-23T01:43:06.136Z,8.65
2022-12-23T01:43:14.715Z,8.65
2022-12-23T01:43:25.116Z,8.66
2022-12-23T01:43:35.158Z,8.65
2022-12-23T01:43:45.094Z,8.66
2022-12-23T01:43:55.123Z,8.67
2022-12-23T01:44:05.185Z,8.67
2022-12-23T01:44:15.098Z,8.67
2022-12-23T01:44:25.015Z,8.68
2022-12-23T01:44:34.693Z,8.68
2022-12-23T01:44:44.726Z,8.68
2022-12-23T01:44:54.678Z,8.68
2022-12-23T01:45:05.156Z,8.67
2022-12-23T01:45:14.655Z,8.66
2022-12-23T01:45:25.132Z,8.67
2022-12-23T01:45:34.791Z,8.66
2022-12-23T01:45:45.136Z,8.66
2022-12-23T01:45:54.728Z,8.66
2022-12-23T01:46:05.169Z,8.66
2022-12-23T01:46:15.319Z,8.65
2022-12-23T01:46:24.709Z,8.66
2022-12-23T01:46:34.635Z,8.65
2022-12-23T01:46:46.074Z,8.64
2022-12-23T01:46:54.645Z,8.63
2022-12-23T01:47:04.705Z,8.63
2022-12-23T01:47:15.445Z,8.63
2022-12-23T01:47:24.657Z,8.62
2022-12-23T01:47:36.155Z,8.63
2022-12-23T01:47:44.661Z,8.61
2022-12-23T01:47:54.682Z,8.63
2022-12-23T01:48:06.126Z,8.61
2022-12-23T01:48:14.801Z,8.61
2022-12-23T01:48:24.644Z,8.61
2022-12-23T01:48:34.637Z,8.61
2022-12-23T01:48:44.648Z,8.60
2022-12-23T01:48:54.666Z,8.60
2022-12-23T01:49:06.112Z,8.61
2022-12-23T01:49:14.633Z,8.60
2022-12-23T01:49:26.106Z,8.62
2022-12-23T01:49:35.601Z,8.61
2022-12-23T01:49:46.073Z,8.61
2022-12-23T01:49:54.626Z,8.60
2022-12-23T01:50:04.652Z,8.63
2022-12-23T01:50:14.645Z,8.62
2022-12-23T01:50:24.641Z,8.61
2022-12-23T01:50:36.079Z,8.62
2022-12-23T01:50:44.657Z,8.61
2022-12-23T01:50:54.627Z,8.63
2022-12-23T01:51:05.597Z,8.62
2022-12-23T01:51:16.086Z,8.62
2022-12-23T01:51:26.809Z,8.61
2022-12-23T01:51:34.636Z,8.60
2022-12-23T01:51:45.544Z,8.62
2022-12-23T01:51:54.619Z,8.60
2022-12-23T01:52:04.612Z,8.61
2022-12-23T01:52:14.617Z,8.60
2022-12-23T01:52:24.639Z,8.60
2022-12-23T01:52:34.640Z,8.60
2022-12-23T01:52:44.630Z,8.60
2022-12-23T01:52:54.731Z,8.60
2022-12-23T01:53:07.807Z,8.59
2022-12-23T01:53:16.089Z,8.55
2022-12-23T01:53:26.043Z,8.57
2022-12-23T01:53:34.598Z,8.58
2022-12-23T01:53:46.058Z,8.59
2022-12-23T01:53:54.595Z,8.58
2022-12-23T01:54:04.617Z,8.59
2022-12-23T01:54:14.607Z,8.59
2022-12-23T01:54:26.038Z,8.58
2022-12-23T01:54:34.600Z,8.56
2022-12-23T01:54:44.640Z,8.58
2022-12-23T01:54:56.111Z,8.58
2022-12-23T01:55:04.596Z,8.56
2022-12-23T01:55:14.976Z,8.57
2022-12-23T01:55:24.586Z,8.57
2022-12-23T01:55:34.936Z,8.56
2022-12-23T01:55:44.586Z,8.56
2022-12-23T01:55:54.594Z,8.56
2022-12-23T01:56:05.070Z,8.56
2022-12-23T01:56:14.567Z,8.56
2022-12-23T01:56:24.845Z,8.56
2022-12-23T01:56:34.582Z,8.55
2022-12-23T01:56:46.027Z,8.55
2022-12-23T01:56:56.027Z,8.54
2022-12-23T01:57:04.590Z,8.54
2022-12-23T01:57:14.583Z,8.54
2022-12-23T01:57:26.027Z,8.54
2022-12-23T01:57:34.938Z,8.53
2022-12-23T01:57:44.575Z,8.54
2022-12-23T01:57:54.577Z,8.54
2022-12-23T01:58:04.570Z,8.54
2022-12-23T01:58:16.067Z,8.54
2022-12-23T01:58:26.015Z,8.53
2022-12-23T01:58:34.580Z,8.53
2022-12-23T01:58:44.561Z,8.54
2022-12-23T01:58:54.588Z,8.53
2022-12-23T01:59:06.025Z,8.53
2022-12-23T01:59:14.569Z,8.53
2022-12-23T01:59:24.589Z,8.54
2022-12-23T01:59:34.611Z,8.53
2022-12-23T01:59:44.549Z,8.53
2022-12-23T01:59:54.570Z,8.53
2022-12-23T02:00:06.059Z,8.53
2022-12-23T02:00:14.719Z,8.51
2022-12-23T02:00:24.829Z,8.52
2022-12-23T02:00:35.289Z,8.51
2022-12-23T02:00:44.549Z,8.50
2022-12-23T02:00:54.612Z,8.51
2022-12-23T02:01:05.494Z,8.51
2022-12-23T02:01:16.078Z,8.49
2022-12-23T02:01:24.685Z,8.49
2022-12-23T02:01:34.726Z,8.49
2022-12-23T02:01:44.799Z,8.49
2022-12-23T02:01:54.685Z,8.48
2022-12-23T02:02:06.153Z,8.48
2022-12-23T02:02:14.781Z,8.47
2022-12-23T02:02:26.160Z,8.48
2022-12-23T02:02:34.719Z,8.47
2022-12-23T02:02:46.008Z,8.48
2022-12-23T02:02:54.657Z,8.46
2022-12-23T02:03:06.217Z,8.47
2022-12-23T02:03:14.754Z,8.46
2022-12-23T02:03:24.607Z,8.46
2022-12-23T02:03:36.038Z,8.46
2022-12-23T02:03:44.842Z,8.45
2022-12-23T02:03:56.075Z,8.46
2022-12-23T02:04:05.511Z,8.44
2022-12-23T02:04:14.560Z,8.45
2022-12-23T02:04:24.536Z,8.45
2022-12-23T02:04:34.533Z,8.45
2022-12-23T02:04:44.553Z,8.45
2022-12-23T02:04:54.525Z,8.45
2022-12-23T02:05:05.974Z,8.45
2022-12-23T02:05:14.522Z,8.44
2022-12-23T02:05:24.567Z,8.45
2022-12-23T02:05:34.512Z,8.45
2022-12-23T02:05:44.521Z,8.45
2022-12-23T02:05:54.529Z,8.46
2022-12-23T02:06:04.510Z,8.46
2022-12-23T02:06:14.510Z,8.46
2022-12-23T02:06:25.957Z,8.46
2022-12-23T02:06:34.563Z,8.45
2022-12-23T02:06:45.959Z,8.46
2022-12-23T02:06:54.544Z,8.45
2022-12-23T02:07:05.980Z,8.47
2022-12-23T02:07:14.490Z,8.45
2022-12-23T02:07:24.523Z,8.46
2022-12-23T02:07:34.511Z,8.45
2022-12-23T02:07:44.515Z,8.45
2022-12-23T02:07:54.511Z,8.46
2022-12-23T02:08:04.501Z,8.45
2022-12-23T02:08:14.504Z,8.44
2022-12-23T02:08:24.515Z,8.44
2022-12-23T02:08:34.525Z,8.44
2022-12-23T02:08:44.510Z,8.43
2022-12-23T02:08:55.423Z,8.43
2022-12-23T02:09:04.480Z,8.42
2022-12-23T02:09:14.491Z,8.43
2022-12-23T02:09:24.566Z,8.42
2022-12-23T02:09:34.487Z,8.42
2022-12-23T02:09:44.495Z,8.42
2022-12-23T02:09:54.556Z,8.42
2022-12-23T02:10:04.467Z,8.42
2022-12-23T02:10:14.528Z,8.42
2022-12-23T02:10:24.501Z,8.41
2022-12-23T02:10:34.732Z,8.41
2022-12-23T02:10:44.528Z,8.40
2022-12-23T02:10:55.635Z,8.39
2022-12-23T02:11:05.932Z,8.38
2022-12-23T02:11:14.481Z,8.38
2022-12-23T02:11:24.458Z,8.38
2022-12-23T02:11:34.473Z,8.36
2022-12-23T02:11:44.495Z,8.36
2022-12-23T02:11:54.482Z,8.35
2022-12-23T02:12:04.483Z,8.34
2022-12-23T02:12:14.861Z,8.35
2022-12-23T02:12:24.494Z,8.35
2022-12-23T02:12:34.464Z,8.35
2022-12-23T02:12:44.484Z,8.35
2022-12-23T02:12:54.904Z,8.35
2022-12-23T02:13:04.490Z,8.35